Terminal Aerodrome Forecast
Issued by NWS

Home | Current Version | Previous Version | Text Only | Print | Product List | Glossary On
Versions: 1 2 3 4 5 6 7 8 9 10 11 12 13 14 15 16 17 18 19
000
FTAK31 PAFA 262325
TAFASC
TAF
PASC 262325Z 2700/2724 08009KT P6SM OVC012
     FM270400 08012KT 4SM BR OVC004
     FM271000 08012KT 1SM BR OVC003
     FM271500 08010KT 6SM BR OVC006=

USA.gov is the U.S. government's official web portal to all federal, state and local government web resources and services.